D/T METAR WX W/SPE G/SPE TEMP DEWP FEEL
31/01/23 12:20 EGGW 311220Z AUTO 28019G33KT 9999 FEW023 BKN030 11/05 Q1022 21.9mph 38.0mph 11°C 5°C 10.3°C
31/01/23 04:20 EGGW 310420Z AUTO 26013KT 220V280 9999 FEW046 05/03 Q1024 15.0mph 5°C 3°C 3.7°C
30/01/23 21:50 EGGW 302150Z AUTO 24008KT 9999 NCD 02/00 Q1027 9.2mph 2°C 0°C -0.2°C
30/01/23 12:50 EGGW 301250Z AUTO 31014KT 9999 NCD 08/02 Q1024 16.1mph 8°C 2°C 6.4°C
30/01/23 11:50 EGGW 301150Z AUTO 30014KT 9999 NCD 08/02 Q1025 16.1mph 8°C 2°C 6.4°C
30/01/23 10:50 EGGW 301050Z AUTO 28011KT 9999 NCD 06/02 Q1024 12.7mph 6°C 2°C 4.4°C
30/01/23 09:50 EGGW 300950Z AUTO 29014KT 9999 NCD 05/01 Q1024 16.1mph 5°C 1°C 3.1°C
30/01/23 07:50 EGGW 300750Z AUTO 30011KT 9999 OVC034 05/01 Q1023 12.7mph 5°C 1°C 3.1°C
09/01/23 06:20 EGGW 090620Z AUTO 25014KT 9999 NCD 05/03 Q0993 16.1mph 5°C 3°C 3.7°C
09/01/23 05:50 EGGW 090550Z AUTO 26014KT 9999 NCD 05/03 Q0993 16.1mph 5°C 3°C 3.7°C
09/01/23 05:20 EGGW 090520Z AUTO 25015KT 9999 NCD 05/03 Q0993 17.3mph 5°C 3°C 3.7°C
09/01/23 04:50 EGGW 090450Z AUTO 26016KT 9999 NCD 04/03 Q0992 18.4mph 4°C 3°C 2.7°C
09/01/23 04:20 EGGW 090420Z AUTO 26014KT 9999 NCD 04/03 Q0992 16.1mph 4°C 3°C 2.7°C
09/01/23 03:50 EGGW 090350Z AUTO 26014KT 9999 NCD 04/03 Q0992 16.1mph 4°C 3°C 2.7°C
09/01/23 03:20 EGGW 090320Z AUTO 26014KT 9999 NCD 05/04 Q0991 16.1mph 5°C 4°C 4.0°C
09/01/23 02:50 EGGW 090250Z AUTO 26014KT 9999 NCD 05/04 Q0991 16.1mph 5°C 4°C 4.0°C
09/01/23 02:20 EGGW 090220Z AUTO 26011KT 9999 FEW009 05/04 Q0990 12.7mph 5°C 4°C 4.0°C
09/01/23 01:50 EGGW 090150Z AUTO 26010KT 9999 FEW007 SCT019 BKN029 05/04 Q0990 11.5mph 5°C 4°C 4.0°C
09/01/23 00:50 EGGW 090050Z AUTO 24007KT 9999 BKN010 BKN016 OVC031 05/04 Q0989 8.1mph 5°C 4°C 4.0°C
09/01/23 00:20 EGGW 090020Z AUTO 22005KT 9000 BKN009 OVC016 04/04 Q0988 5.8mph 4°C 4°C 3.0°C
08/01/23 23:50 EGGW 082350Z AUTO 19004KT 9999 SCT011 BKN024 BKN030 04/03 Q0988 4.6mph 4°C 3°C 2.7°C
08/01/23 23:20 EGGW 082320Z AUTO 19005KT 9999 -RA FEW026/// SCT033/// BKN040/// //////TCU 04/03 Q0988 -RA 5.8mph 4°C 3°C 2.7°C
08/01/23 22:50 EGGW 082250Z AUTO 19006KT 160V220 9999 FEW018/// SCT025/// //////TCU 04/03 Q0988 6.9mph 4°C 3°C 2.7°C
08/01/23 22:20 EGGW 082220Z AUTO 20006KT 160V220 9999 BKN025 BKN033 03/03 Q0988 6.9mph 3°C 3°C 1.7°C
08/01/23 20:50 EGGW 082050Z AUTO 19006KT 9999 NCD 03/03 Q0989 6.9mph 3°C 3°C 1.7°C
08/01/23 19:20 EGGW 081920Z AUTO 20008KT 9999 NCD 04/03 Q0989 9.2mph 4°C 3°C 2.7°C
08/01/23 18:50 EGGW 081850Z AUTO 21009KT 9999 NCD 04/02 Q0989 10.4mph 4°C 2°C 2.4°C
08/01/23 18:20 EGGW 081820Z 23009KT CAVOK 04/03 Q0989 10.4mph 4°C 3°C 2.7°C
08/01/23 17:50 EGGW 081750Z 25014KT 9999 SCT011TCU BKN017 BKN025 05/03 Q0988 RERA 16.1mph 5°C 3°C 3.7°C
08/01/23 17:20 EGGW 081720Z 22013KT 8000 RA BKN014 BKN021 05/04 Q0988 RERA RA 15.0mph 5°C 4°C 4.0°C
08/01/23 16:50 EGGW 081650Z 20012KT 9999 RA BKN014 BKN021 06/05 Q0988 RA 13.8mph 6°C 5°C 5.3°C
08/01/23 16:20 EGGW 081620Z 20010KT 9999 6000W -RA BKN014 BKN021 06/05 Q0988 -RA 11.5mph 6°C 5°C 5.3°C
08/01/23 15:50 EGGW 081550Z AUTO 19009KT 9999 -RA BKN015 06/05 Q0988 -RA 10.4mph 6°C 5°C 5.3°C
08/01/23 14:20 EGGW 081420Z AUTO 20010KT 160V220 9999 FEW043/// //////CB 06/05 Q0988 RERA 11.5mph 6°C 5°C 5.3°C
08/01/23 13:50 EGGW 081350Z AUTO 21015G26KT 5000 -RA FEW015/// SCT021/// BKN026/// //////CB 06/05 Q0989 -RA 17.3mph 29.9mph 6°C 5°C 5.3°C
08/01/23 13:20 EGGW 081320Z AUTO 21014KT 7000 -RA FEW014/// BKN027/// BKN040/// //////CB 06/05 Q0990 -RA 16.1mph 6°C 5°C 5.3°C
08/01/23 12:50 EGGW 081250Z AUTO 19014G27KT 9999 -RA SCT018/// //////CB 07/05 Q0990 -RA 16.1mph 31.1mph 7°C 5°C 6.3°C
08/01/23 12:20 EGGW 081220Z AUTO 20015KT 9999 FEW044/// //////CB 07/05 Q0990 17.3mph 7°C 5°C 6.3°C
08/01/23 11:50 EGGW 081150Z AUTO 20016KT 160V230 9999 -RA SCT035/// SCT046/// //////CB 07/05 Q0991 -RA 18.4mph 7°C 5°C 6.3°C
08/01/23 11:20 EGGW 081120Z AUTO 20015KT 9999 -RA FEW013/// SCT020/// BKN031/// //////CB 07/05 Q0992 -RA 17.3mph 7°C 5°C 6.3°C
08/01/23 10:50 EGGW 081050Z AUTO 19012KT 9999 SCT010/// BKN040/// //////CB 07/06 Q0992 13.8mph 7°C 6°C 6.6°C
08/01/23 10:20 EGGW 081020Z AUTO 19009KT 150V230 9999 BKN009 BKN013 07/06 Q0992 10.4mph 7°C 6°C 6.6°C
08/01/23 09:50 EGGW 080950Z AUTO 19010KT 150V220 9999 SCT007 SCT011 BKN028 06/05 Q0992 11.5mph 6°C 5°C 5.3°C
08/01/23 09:20 EGGW 080920Z AUTO 18008KT 140V210 9999 BKN007 BKN023 06/05 Q0993 9.2mph 6°C 5°C 5.3°C
08/01/23 08:50 EGGW 080850Z AUTO 18008KT 150V210 9999 FEW045 05/04 Q0993 9.2mph 5°C 4°C 4.0°C
08/01/23 08:20 EGGW 080820Z AUTO 18008KT 9999 FEW010 05/04 Q0993 9.2mph 5°C 4°C 4.0°C
08/01/23 07:20 EGGW 080720Z AUTO 19008KT 9999 SCT012 BKN035 BKN043 05/04 Q0994 9.2mph 5°C 4°C 4.0°C
08/01/23 06:50 EGGW 080650Z AUTO 20011KT 9999 SCT038 06/04 Q0994 12.7mph 6°C 4°C 5.0°C
08/01/23 06:20 EGGW 080620Z AUTO 19008KT 150V220 9999 NCD 05/04 Q0994 9.2mph 5°C 4°C 4.0°C
08/01/23 05:50 EGGW 080550Z AUTO 19008KT 9999 NCD 05/04 Q0994 9.2mph 5°C 4°C 4.0°C
08/01/23 05:20 EGGW 080520Z AUTO 19011KT 9999 -RA NCD 06/04 Q0994 -RA 12.7mph 6°C 4°C 5.0°C
08/01/23 04:50 EGGW 080450Z AUTO 18008KT 9999 NCD 06/04 Q0994 9.2mph 6°C 4°C 5.0°C
08/01/23 04:20 EGGW 080420Z AUTO 19010KT 9999 BKN040/// //////CB 06/04 Q0995 RERA 11.5mph 6°C 4°C 5.0°C
08/01/23 03:50 EGGW 080350Z AUTO 20011KT 160V250 4900 RA BKN015/// BKN024/// //////CB 07/06 Q0995 RA 12.7mph 7°C 6°C 6.6°C
08/01/23 03:20 EGGW 080320Z AUTO 19009KT 150V210 9999 BKN020/// OVC031/// //////CB 07/05 Q0995 10.4mph 7°C 5°C 6.3°C
08/01/23 02:50 EGGW 080250Z AUTO 20010KT 9999 BKN021 07/05 Q0995 11.5mph 7°C 5°C 6.3°C
08/01/23 02:20 EGGW 080220Z AUTO 19009KT 160V220 9999 BKN017/// //////TCU 07/05 Q0995 10.4mph 7°C 5°C 6.3°C
08/01/23 01:50 EGGW 080150Z AUTO 19009KT 9999 BKN019 06/05 Q0995 10.4mph 6°C 5°C 5.3°C
08/01/23 00:50 EGGW 080050Z AUTO 19011KT 9999 NCD 06/05 Q0995 12.7mph 6°C 5°C 5.3°C
07/01/23 23:50 EGGW 072350Z AUTO 19010KT 9999 NCD 06/05 Q0996 11.5mph 6°C 5°C 5.3°C
07/01/23 23:20 EGGW 072320Z AUTO 20013KT 9999 NCD 07/05 Q0996 15.0mph 7°C 5°C 6.3°C
07/01/23 22:50 EGGW 072250Z AUTO 21015KT 9999 NCD 06/04 Q0996 17.3mph 6°C 4°C 5.0°C
07/01/23 21:50 EGGW 072150Z AUTO 20011KT 160V220 9999 NCD 06/04 Q0996 12.7mph 6°C 4°C 5.0°C
07/01/23 21:20 EGGW 072120Z AUTO 20012KT 9999 NCD 06/04 Q0996 13.8mph 6°C 4°C 5.0°C
07/01/23 20:50 EGGW 072050Z AUTO 21013KT 9999 NCD 06/04 Q0996 15.0mph 6°C 4°C 5.0°C
07/01/23 20:20 EGGW 072020Z AUTO 21012KT 170V240 9999 SCT016 06/04 Q0996 13.8mph 6°C 4°C 5.0°C
07/01/23 19:50 EGGW 071950Z AUTO 21014KT 160V230 9999 BKN020 07/05 Q0995 16.1mph 7°C 5°C 6.3°C
07/01/23 19:20 EGGW 071920Z AUTO 22014KT 9999 BKN020 07/05 Q0995 16.1mph 7°C 5°C 6.3°C
07/01/23 18:50 EGGW 071850Z AUTO 21014KT 9999 SCT020 BKN025 08/05 Q0995 16.1mph 8°C 5°C 7.3°C
07/01/23 18:20 EGGW 071820Z AUTO 23017KT 9999 -RA BKN021 08/06 Q0995 RESHRA -RA 19.6mph 8°C 6°C 7.6°C
07/01/23 17:50 EGGW 071750Z 21016G26KT 170V240 9999 -DZ SCT021CB BKN025 OVC042 09/07 Q0994 -DZ 18.4mph 29.9mph 9°C 7°C 9.0°C
07/01/23 17:20 EGGW 071720Z 20017G27KT 170V230 9999 -SHRA BKN018CB BKN023 09/07 Q0994 RESHRA -SHRA 19.6mph 31.1mph 9°C 7°C 9.0°C
07/01/23 16:50 EGGW 071650Z 20013KT 9999 SHRA FEW016TCU SCT022 BKN044 09/08 Q0994 REDZ SHRA 15.0mph 9°C 8°C 9.4°C
07/01/23 16:20 EGGW 071620Z 20015G25KT 9999 DZ SCT014 09/08 Q0994 DZ 17.3mph 28.8mph 9°C 8°C 9.4°C
07/01/23 15:50 EGGW 071550Z 20014G25KT 9999 SCT014CB 09/08 Q0994 16.1mph 28.8mph 9°C 8°C 9.4°C
07/01/23 15:20 EGGW 071520Z 20016KT 9999 SCT011CB 10/08 Q0995 18.4mph 10°C 8°C 10.4°C
07/01/23 14:50 EGGW 071450Z 20015KT 9999 BKN006 BKN013 10/09 Q0995 17.3mph 10°C 9°C 10.8°C
07/01/23 14:20 EGGW 071420Z 19015G26KT 9000 -RA OVC005CB 10/09 Q0995 -RA 17.3mph 29.9mph 10°C 9°C 10.8°C
07/01/23 13:50 EGGW 071350Z 19014G25KT 4400 -RADZ BKN006 OVC009 10/09 Q0995 -RA -DZ 16.1mph 28.8mph 10°C 9°C 10.8°C
07/01/23 12:50 EGGW 071250Z AUTO 19015KT 9999 OVC009 10/09 Q0996 17.3mph 10°C 9°C 10.8°C
07/01/23 12:20 EGGW 071220Z AUTO 19013G24KT 160V240 9999 OVC007 10/09 Q0996 15.0mph 27.6mph 10°C 9°C 10.8°C
07/01/23 11:50 EGGW 071150Z AUTO 19014G26KT 160V230 7000 -RA BKN006 OVC009 09/09 Q0997 -RA 16.1mph 29.9mph 9°C 9°C 9.8°C
07/01/23 11:20 EGGW 071120Z AUTO 18014KT 150V210 8000 -RA OVC006 09/09 Q0998 -RA 16.1mph 9°C 9°C 9.8°C
07/01/23 10:50 EGGW 071050Z AUTO 18015G25KT 150V210 9999 -RA OVC008 09/08 Q0998 -RA 17.3mph 28.8mph 9°C 8°C 9.4°C
07/01/23 10:20 EGGW 071020Z AUTO 18013G24KT 150V220 9999 -RA OVC007 09/08 Q0998 -RA 15.0mph 27.6mph 9°C 8°C 9.4°C
07/01/23 09:50 EGGW 070950Z AUTO 18016G27KT 9999 -RA OVC007 09/08 Q0998 -RA 18.4mph 31.1mph 9°C 8°C 9.4°C
07/01/23 09:20 EGGW 070920Z AUTO 17015G27KT 9000 -RA BKN009 OVC012 09/08 Q0999 -RA 17.3mph 31.1mph 9°C 8°C 9.4°C
07/01/23 08:50 EGGW 070850Z AUTO 17016G27KT 140V210 9999 -RA OVC011 09/08 Q0999 -RA 18.4mph 31.1mph 9°C 8°C 9.4°C
07/01/23 08:20 EGGW 070820Z AUTO 17014G24KT 9999 -RA OVC013 09/08 Q1000 -RA 16.1mph 27.6mph 9°C 8°C 9.4°C
07/01/23 07:50 EGGW 070750Z AUTO 17016G27KT 140V210 9999 -RA OVC013 09/07 Q1000 -RA 18.4mph 31.1mph 9°C 7°C 9.0°C
07/01/23 07:20 EGGW 070720Z AUTO 16017G27KT 9999 OVC012 09/08 Q1001 19.6mph 31.1mph 9°C 8°C 9.4°C
07/01/23 06:50 EGGW 070650Z AUTO 17015G25KT 140V200 8000 OVC013 10/08 Q1001 17.3mph 28.8mph 10°C 8°C 10.4°C
07/01/23 06:20 EGGW 070620Z AUTO 17015G26KT 140V210 9999 BKN016 OVC023 10/07 Q1002 17.3mph 29.9mph 10°C 7°C 10.0°C
07/01/23 05:50 EGGW 070550Z AUTO 17016G30KT 9999 OVC014 10/08 Q1002 18.4mph 34.5mph 10°C 8°C 10.4°C
07/01/23 05:20 EGGW 070520Z AUTO 18017G28KT 9999 BKN014 OVC018 11/08 Q1003 19.6mph 32.2mph 11°C 8°C 11.4°C
07/01/23 04:50 EGGW 070450Z AUTO 18016G26KT 150V210 9999 BKN014 OVC024 11/08 Q1003 18.4mph 29.9mph 11°C 8°C 11.4°C